Time;durP1;ratioP1;P1;durP2;ratioP2;P2;SDS_P1;SDS_P2;PMS_P1;PMS_P2;Temp;Humidity;BMP_temperature;BMP_pressure;BME280_temperature;BME280_humidity;BME280_pressure;Samples;Min_cycle;Max_cycle;Signal;HPM_P1;HPM_P2
2022/03/24 00:02:25;;;;;;;24.13;16.92;;;;;;;;;;5103450;27;20028;-49
2022/03/24 00:04:51;;;;;;;26.13;17.75;;;;;;;;;;5134906;27;20041;-49
2022/03/24 00:07:17;;;;;;;23.25;16.63;;;;;;;;;;5121899;27;20024;-48
2022/03/24 00:09:43;;;;;;;26.40;17.33;;;;;;;;;;5114189;28;20070;-49
2022/03/24 00:12:10;;;;;;;31.23;18.05;;;;;;;;;;5124231;27;20451;-49
2022/03/24 00:14:37;;;;;;;25.20;17.25;;;;;;;;;;5133965;27;20039;-48
2022/03/24 00:17:04;;;;;;;25.50;17.45;;;;;;;;;;5124975;27;20016;-49
2022/03/24 00:19:30;;;;;;;31.58;19.63;;;;;;;;;;5115825;27;20483;-48
2022/03/24 00:21:57;;;;;;;29.15;20.65;;;;;;;;;;5107391;28;20031;-49
2022/03/24 00:24:23;;;;;;;35.47;20.13;;;;;;;;;;5113873;28;20045;-49
2022/03/24 00:26:49;;;;;;;33.80;20.35;;;;;;;;;;5120524;27;20023;-51
2022/03/24 00:29:15;;;;;;;34.63;20.50;;;;;;;;;;5134629;27;20038;-49
2022/03/24 00:31:41;;;;;;;31.60;20.60;;;;;;;;;;5131692;27;20380;-51
2022/03/24 00:34:07;;;;;;;34.47;21.25;;;;;;;;;;5134610;27;20028;-52
2022/03/24 00:36:34;;;;;;;32.63;21.20;;;;;;;;;;5134141;27;20126;-51
2022/03/24 00:39:00;;;;;;;35.92;22.95;;;;;;;;;;5133820;27;20087;-53
2022/03/24 00:41:28;;;;;;;31.98;21.27;;;;;;;;;;5134336;27;20027;-50
2022/03/24 00:43:55;;;;;;;29.20;21.05;;;;;;;;;;5133035;27;20023;-52
2022/03/24 00:46:23;;;;;;;35.88;21.27;;;;;;;;;;5133369;27;20023;-49
2022/03/24 00:48:52;;;;;;;36.13;20.83;;;;;;;;;;5096696;28;20023;-53
2022/03/24 00:51:18;;;;;;;34.88;20.60;;;;;;;;;;5113741;28;20032;-49
2022/03/24 00:53:45;;;;;;;32.95;21.70;;;;;;;;;;5130270;27;20503;-50
2022/03/24 00:56:11;;;;;;;39.60;21.55;;;;;;;;;;5133158;27;20030;-50
2022/03/24 00:58:38;;;;;;;45.10;23.15;;;;;;;;;;5132165;27;20019;-53
2022/03/24 01:01:06;;;;;;;38.15;21.50;;;;;;;;;;5117075;27;20022;-51
2022/03/24 01:03:32;;;;;;;38.50;20.98;;;;;;;;;;5117437;27;20028;-49
2022/03/24 01:05:58;;;;;;;39.13;21.55;;;;;;;;;;5113279;28;20113;-49
2022/03/24 01:08:24;;;;;;;35.90;21.42;;;;;;;;;;5126552;27;20023;-51
2022/03/24 01:10:51;;;;;;;39.55;21.75;;;;;;;;;;5134095;27;20031;-49
2022/03/24 01:13:21;;;;;;;34.92;20.98;;;;;;;;;;5132521;27;20030;-50
2022/03/24 01:15:47;;;;;;;36.75;21.83;;;;;;;;;;5133685;27;20027;-49
2022/03/24 01:18:14;;;;;;;31.92;21.17;;;;;;;;;;5102377;28;20023;-49
2022/03/24 01:20:41;;;;;;;32.80;22.27;;;;;;;;;;5112871;28;20032;-49
2022/03/24 01:23:07;;;;;;;36.22;21.52;;;;;;;;;;5123076;27;20080;-49
2022/03/24 01:25:33;;;;;;;36.40;22.98;;;;;;;;;;5114752;27;20035;-51
2022/03/24 01:27:59;;;;;;;43.38;22.58;;;;;;;;;;5132232;27;20065;-50
2022/03/24 01:30:25;;;;;;;32.55;21.60;;;;;;;;;;5128465;27;20162;-51
2022/03/24 01:32:51;;;;;;;39.20;22.33;;;;;;;;;;5119878;27;20023;-49
2022/03/24 01:35:18;;;;;;;31.35;21.13;;;;;;;;;;5133025;27;20034;-49
2022/03/24 01:37:44;;;;;;;33.03;20.45;;;;;;;;;;5132080;27;20030;-49
2022/03/24 01:40:11;;;;;;;33.67;20.85;;;;;;;;;;5133555;27;20051;-52
2022/03/24 01:42:38;;;;;;;33.10;20.77;;;;;;;;;;5127091;27;20031;-49
2022/03/24 01:51:11;;;;;;;38.08;22.40;;;;;;;;;;5114120;28;20034;-50
2022/03/24 01:53:37;;;;;;;34.65;23.35;;;;;;;;;;5113634;28;20024;-51
2022/03/24 01:56:03;;;;;;;40.30;23.73;;;;;;;;;;5112666;28;20504;-50
2022/03/24 01:58:30;;;;;;;32.95;22.73;;;;;;;;;;5113392;28;20088;-49
2022/03/24 02:01:17;;;;;;;34.22;23.60;;;;;;;;;;5111918;28;20028;-49
2022/03/24 02:03:44;;;;;;;34.92;23.17;;;;;;;;;;5122763;28;20016;-51
2022/03/24 02:06:10;;;;;;;32.88;23.88;;;;;;;;;;5120185;28;20042;-51
2022/03/24 02:08:36;;;;;;;33.55;24.17;;;;;;;;;;5122689;28;20062;-50
2022/03/24 02:11:02;;;;;;;38.20;25.60;;;;;;;;;;5131995;28;20070;-51
2022/03/24 02:13:28;;;;;;;40.13;21.88;;;;;;;;;;5097938;28;20016;-51
2022/03/24 02:15:54;;;;;;;29.70;20.93;;;;;;;;;;5111731;28;20024;-48
2022/03/24 02:18:20;;;;;;;36.50;21.40;;;;;;;;;;5111535;28;20455;-49
2022/03/24 02:20:47;;;;;;;37.50;21.33;;;;;;;;;;5130430;28;20027;-49
2022/03/24 02:23:15;;;;;;;36.45;21.58;;;;;;;;;;5120832;28;20024;-50
2022/03/24 02:25:43;;;;;;;30.40;19.15;;;;;;;;;;5112435;28;20363;-50
2022/03/24 02:28:10;;;;;;;35.13;19.30;;;;;;;;;;5112235;28;20027;-50
2022/03/24 02:30:36;;;;;;;30.48;19.05;;;;;;;;;;5113996;28;20031;-50
2022/03/24 02:33:02;;;;;;;41.33;20.65;;;;;;;;;;5131409;28;20100;-51
2022/03/24 02:35:28;;;;;;;33.65;20.13;;;;;;;;;;5111277;28;20503;-50
2022/03/24 02:37:54;;;;;;;32.28;20.13;;;;;;;;;;5112826;28;20038;-52
2022/03/24 02:40:20;;;;;;;35.00;20.13;;;;;;;;;;5134115;27;20023;-49
2022/03/24 02:42:46;;;;;;;32.95;20.58;;;;;;;;;;5133782;27;20061;-49
2022/03/24 02:45:13;;;;;;;35.28;20.67;;;;;;;;;;5134708;27;20035;-50
2022/03/24 02:47:39;;;;;;;32.08;19.48;;;;;;;;;;5136198;27;20023;-49
2022/03/24 02:50:06;;;;;;;33.72;20.95;;;;;;;;;;5135298;27;20031;-50
2022/03/24 02:52:32;;;;;;;29.08;18.38;;;;;;;;;;5136592;27;20026;-51
2022/03/24 02:54:58;;;;;;;40.03;21.27;;;;;;;;;;5135110;27;20065;-48
2022/03/24 02:57:24;;;;;;;31.77;19.67;;;;;;;;;;5136433;27;20387;-49
2022/03/24 02:59:50;;;;;;;30.63;19.57;;;;;;;;;;5117164;27;20057;-49
2022/03/24 03:02:17;;;;;;;33.72;19.20;;;;;;;;;;5136509;27;20023;-51
2022/03/24 03:04:44;;;;;;;30.35;19.15;;;;;;;;;;5104447;28;20426;-50
2022/03/24 03:07:10;;;;;;;33.00;19.50;;;;;;;;;;5113797;27;20034;-49
2022/03/24 03:09:37;;;;;;;28.65;17.42;;;;;;;;;;5134701;27;20022;-49
2022/03/24 03:12:03;;;;;;;25.85;19.23;;;;;;;;;;5135439;27;20023;-49
2022/03/24 03:14:29;;;;;;;27.63;18.17;;;;;;;;;;5134829;27;20023;-49
2022/03/24 03:16:56;;;;;;;28.90;19.73;;;;;;;;;;5136331;27;20076;-50
2022/03/24 03:19:23;;;;;;;31.02;19.65;;;;;;;;;;5134276;27;20015;-52
2022/03/24 03:21:49;;;;;;;29.20;21.27;;;;;;;;;;5136039;27;20034;-49
2022/03/24 03:24:16;;;;;;;30.00;20.23;;;;;;;;;;5127945;27;20032;-49
2022/03/24 03:26:42;;;;;;;34.30;19.30;;;;;;;;;;5115567;28;20053;-51
2022/03/24 03:29:09;;;;;;;31.67;20.77;;;;;;;;;;5114808;28;20030;-52
2022/03/24 03:31:35;;;;;;;29.87;20.10;;;;;;;;;;5115450;28;20015;-49
2022/03/24 03:34:02;;;;;;;30.33;21.10;;;;;;;;;;5119881;27;20106;-53
2022/03/24 03:36:28;;;;;;;31.50;21.63;;;;;;;;;;5135667;27;20119;-50
2022/03/24 03:38:56;;;;;;;30.83;21.37;;;;;;;;;;5116064;27;20043;-49
2022/03/24 03:41:22;;;;;;;26.10;21.05;;;;;;;;;;5135735;27;20376;-50
2022/03/24 03:43:48;;;;;;;28.63;21.33;;;;;;;;;;5115768;27;20029;-50
2022/03/24 03:46:15;;;;;;;29.05;21.65;;;;;;;;;;5135533;27;20527;-49
2022/03/24 03:48:42;;;;;;;34.27;21.70;;;;;;;;;;5133441;27;20159;-49
2022/03/24 03:51:08;;;;;;;36.10;23.70;;;;;;;;;;5134878;27;20031;-49
2022/03/24 03:53:35;;;;;;;27.97;21.00;;;;;;;;;;5133274;27;20070;-51
2022/03/24 03:56:01;;;;;;;26.77;21.60;;;;;;;;;;5116936;27;20019;-49
2022/03/24 03:58:27;;;;;;;28.17;22.10;;;;;;;;;;5135040;27;20404;-52
2022/03/24 04:00:55;;;;;;;29.23;21.30;;;;;;;;;;5134725;27;20023;-49
2022/03/24 04:03:21;;;;;;;34.93;22.53;;;;;;;;;;5135145;27;20030;-51
2022/03/24 04:05:47;;;;;;;30.67;22.37;;;;;;;;;;5127677;27;20392;-51
2022/03/24 04:08:13;;;;;;;28.87;21.27;;;;;;;;;;5131953;27;20023;-48
2022/03/24 04:10:40;;;;;;;31.60;22.20;;;;;;;;;;5131820;27;20032;-49
2022/03/24 04:13:06;;;;;;;31.43;22.10;;;;;;;;;;5135413;27;20058;-49
2022/03/24 04:15:33;;;;;;;29.07;22.17;;;;;;;;;;5133941;27;20077;-50
2022/03/24 04:17:59;;;;;;;29.60;22.10;;;;;;;;;;5135147;27;20027;-49
2022/03/24 04:20:26;;;;;;;37.13;22.57;;;;;;;;;;5132528;27;20027;-50
2022/03/24 04:22:52;;;;;;;35.73;21.13;;;;;;;;;;5133887;27;20099;-49
2022/03/24 04:25:20;;;;;;;34.27;21.60;;;;;;;;;;5132447;27;20073;-49
2022/03/24 04:27:46;;;;;;;34.30;22.37;;;;;;;;;;5134967;27;20383;-49
2022/03/24 04:30:12;;;;;;;32.20;22.43;;;;;;;;;;5131753;27;20397;-52
2022/03/24 04:32:41;;;;;;;32.33;22.77;;;;;;;;;;5133738;27;20027;-50
2022/03/24 04:35:08;;;;;;;30.97;23.47;;;;;;;;;;5132609;27;20026;-50
2022/03/24 04:37:35;;;;;;;35.67;23.57;;;;;;;;;;5134437;27;20057;-48
2022/03/24 04:40:01;;;;;;;32.03;23.47;;;;;;;;;;5133449;27;20033;-50
2022/03/24 04:42:27;;;;;;;30.03;23.53;;;;;;;;;;5134448;27;20027;-49
2022/03/24 04:44:53;;;;;;;34.83;23.27;;;;;;;;;;5133028;27;20027;-50
2022/03/24 04:47:19;;;;;;;31.07;23.70;;;;;;;;;;5134280;27;20099;-48
2022/03/24 04:49:46;;;;;;;35.33;21.30;;;;;;;;;;5133377;27;20545;-50
2022/03/24 04:52:12;;;;;;;35.30;21.43;;;;;;;;;;5128908;27;20069;-49
2022/03/24 04:54:38;;;;;;;29.40;21.77;;;;;;;;;;5117162;27;20368;-49
2022/03/24 04:57:05;;;;;;;31.67;22.77;;;;;;;;;;5134080;27;20044;-52
2022/03/24 04:59:31;;;;;;;33.07;22.40;;;;;;;;;;5132717;27;20076;-51
2022/03/24 05:01:57;;;;;;;30.40;21.33;;;;;;;;;;5124862;27;20032;-49
2022/03/24 05:04:24;;;;;;;30.97;21.27;;;;;;;;;;5114636;27;20065;-49
2022/03/24 05:06:54;;;;;;;30.87;20.90;;;;;;;;;;5134074;27;20030;-51
2022/03/24 05:09:20;;;;;;;28.00;19.67;;;;;;;;;;5132428;27;20030;-51
2022/03/24 05:11:46;;;;;;;35.03;19.67;;;;;;;;;;5134278;27;20476;-54
2022/03/24 05:14:13;;;;;;;26.73;19.70;;;;;;;;;;5132630;27;20023;-53
2022/03/24 05:16:39;;;;;;;32.33;19.43;;;;;;;;;;5132483;27;20027;-51
2022/03/24 05:19:05;;;;;;;33.40;19.23;;;;;;;;;;5133946;27;20023;-50
2022/03/24 05:21:32;;;;;;;28.30;19.93;;;;;;;;;;5132580;27;20031;-52
2022/03/24 05:23:59;;;;;;;33.53;21.50;;;;;;;;;;5133475;27;20076;-50
2022/03/24 05:26:25;;;;;;;33.83;21.17;;;;;;;;;;5132359;27;20156;-52
2022/03/24 05:28:54;;;;;;;31.57;21.40;;;;;;;;;;5133459;27;20038;-49
2022/03/24 05:31:21;;;;;;;31.73;21.90;;;;;;;;;;5130296;27;20058;-49
2022/03/24 05:33:47;;;;;;;31.27;22.40;;;;;;;;;;5115021;27;20037;-51
2022/03/24 05:36:13;;;;;;;32.57;22.20;;;;;;;;;;5131675;27;20131;-48
2022/03/24 05:38:39;;;;;;;37.93;23.37;;;;;;;;;;5133693;27;20416;-49
2022/03/24 05:41:05;;;;;;;33.93;23.00;;;;;;;;;;5131840;27;20467;-54
2022/03/24 05:43:32;;;;;;;35.83;22.60;;;;;;;;;;5132236;27;20027;-52
2022/03/24 05:45:58;;;;;;;31.83;23.23;;;;;;;;;;5131796;27;20031;-49
2022/03/24 05:48:25;;;;;;;33.27;22.30;;;;;;;;;;5133184;27;20039;-49
2022/03/24 05:50:51;;;;;;;31.57;22.83;;;;;;;;;;5132101;27;20030;-49
2022/03/24 05:53:17;;;;;;;33.93;22.97;;;;;;;;;;5133363;28;20023;-54
2022/03/24 05:55:43;;;;;;;35.73;22.30;;;;;;;;;;5131941;28;20023;-50
2022/03/24 05:58:09;;;;;;;31.93;23.07;;;;;;;;;;5132193;28;20023;-52
2022/03/24 06:00:39;;;;;;;32.50;23.63;;;;;;;;;;5132147;28;20027;-49
2022/03/24 06:03:06;;;;;;;35.50;22.77;;;;;;;;;;5133412;28;20020;-49
2022/03/24 06:05:32;;;;;;;34.53;23.37;;;;;;;;;;5131705;28;20035;-48
2022/03/24 06:08:01;;;;;;;33.13;23.13;;;;;;;;;;5133015;28;20491;-48
2022/03/24 06:10:28;;;;;;;31.50;22.33;;;;;;;;;;5095882;28;20028;-53
2022/03/24 06:12:54;;;;;;;40.27;24.17;;;;;;;;;;5097572;27;20024;-49
2022/03/24 06:15:20;;;;;;;32.77;22.97;;;;;;;;;;5135968;27;20027;-49
2022/03/24 06:17:46;;;;;;;39.70;24.30;;;;;;;;;;5118628;27;20127;-48
2022/03/24 06:20:13;;;;;;;35.70;24.17;;;;;;;;;;5135759;27;20019;-49
2022/03/24 06:22:44;;;;;;;35.97;24.93;;;;;;;;;;5122530;27;20519;-48
2022/03/24 06:25:10;;;;;;;37.90;25.20;;;;;;;;;;5125762;27;20036;-53
2022/03/24 06:27:36;;;;;;;36.47;25.47;;;;;;;;;;5136011;27;20035;-51
2022/03/24 06:30:05;;;;;;;37.33;24.67;;;;;;;;;;5128763;27;20027;-49
2022/03/24 06:32:31;;;;;;;35.63;25.47;;;;;;;;;;5136907;27;20027;-49
2022/03/24 06:34:57;;;;;;;40.87;25.70;;;;;;;;;;5135454;27;20031;-49
2022/03/24 06:37:23;;;;;;;36.17;26.17;;;;;;;;;;5118730;27;20472;-50
2022/03/24 06:39:49;;;;;;;37.53;24.20;;;;;;;;;;5135376;27;20034;-50
2022/03/24 06:42:16;;;;;;;39.20;25.30;;;;;;;;;;5136543;27;20030;-49
2022/03/24 06:44:42;;;;;;;40.67;25.70;;;;;;;;;;5135802;27;20050;-50
2022/03/24 06:47:10;;;;;;;45.60;26.50;;;;;;;;;;5115969;28;20456;-49
2022/03/24 06:49:36;;;;;;;37.80;27.40;;;;;;;;;;5116167;28;20023;-50
2022/03/24 06:52:02;;;;;;;36.93;25.60;;;;;;;;;;5135033;27;20031;-48
2022/03/24 06:54:28;;;;;;;38.17;26.07;;;;;;;;;;5136460;27;20031;-49
2022/03/24 06:56:54;;;;;;;41.83;27.97;;;;;;;;;;5134799;27;20039;-49
2022/03/24 06:59:20;;;;;;;39.43;28.80;;;;;;;;;;5136416;27;20098;-49
2022/03/24 07:01:47;;;;;;;37.60;26.50;;;;;;;;;;5135051;27;20509;-49
2022/03/24 07:04:13;;;;;;;42.37;27.67;;;;;;;;;;5136570;27;20027;-51
2022/03/24 07:06:40;;;;;;;39.30;27.40;;;;;;;;;;5130882;27;20061;-51
2022/03/24 07:09:06;;;;;;;38.43;26.87;;;;;;;;;;5114849;27;20361;-50
2022/03/24 07:11:32;;;;;;;39.43;27.93;;;;;;;;;;5121979;27;20043;-51
2022/03/24 07:13:58;;;;;;;42.60;28.27;;;;;;;;;;5122685;27;20031;-50
2022/03/24 07:16:24;;;;;;;40.63;27.97;;;;;;;;;;5134721;27;20356;-51
2022/03/24 07:18:51;;;;;;;42.47;27.70;;;;;;;;;;5135638;27;20093;-48
2022/03/24 07:21:19;;;;;;;39.17;27.67;;;;;;;;;;5130734;27;20474;-49
2022/03/24 07:23:45;;;;;;;35.67;25.90;;;;;;;;;;5133750;27;20540;-49
2022/03/24 07:26:11;;;;;;;40.67;26.43;;;;;;;;;;5134040;27;20038;-52
2022/03/24 07:28:37;;;;;;;44.30;27.70;;;;;;;;;;5136063;27;20019;-52
2022/03/24 07:31:15;;;;;;;44.73;28.63;;;;;;;;;;5133059;27;20099;-50
2022/03/24 07:33:42;;;;;;;39.70;28.43;;;;;;;;;;5135922;27;20019;-49
2022/03/24 07:36:08;;;;;;;45.00;28.97;;;;;;;;;;5133992;27;20039;-49
2022/03/24 07:38:34;;;;;;;41.03;27.83;;;;;;;;;;5135882;27;20384;-49
2022/03/24 07:41:01;;;;;;;42.63;28.55;;;;;;;;;;5134383;27;20047;-49
2022/03/24 07:43:27;;;;;;;44.35;28.25;;;;;;;;;;5135731;27;20379;-51
2022/03/24 07:45:53;;;;;;;45.73;28.37;;;;;;;;;;5134368;27;20031;-51
2022/03/24 07:48:25;;;;;;;47.90;30.05;;;;;;;;;;5131343;27;20023;-53
2022/03/24 07:50:52;;;;;;;53.07;32.07;;;;;;;;;;5134256;27;20098;-52
2022/03/24 07:53:21;;;;;;;48.92;30.48;;;;;;;;;;5134923;27;20022;-48
2022/03/24 07:55:48;;;;;;;42.92;29.92;;;;;;;;;;5134986;27;20024;-50
2022/03/24 07:58:15;;;;;;;45.38;29.33;;;;;;;;;;5135420;27;20337;-52
2022/03/24 08:00:43;;;;;;;45.33;30.17;;;;;;;;;;5134338;27;20048;-53
2022/03/24 08:03:19;;;;;;;45.38;29.42;;;;;;;;;;5135060;27;20066;-49
2022/03/24 08:05:46;;;;;;;52.45;30.27;;;;;;;;;;5133946;27;20379;-51
2022/03/24 08:08:12;;;;;;;44.83;29.98;;;;;;;;;;5134520;27;20015;-50
2022/03/24 08:10:39;;;;;;;46.03;29.88;;;;;;;;;;5133434;27;20023;-49
2022/03/24 08:13:06;;;;;;;45.73;29.87;;;;;;;;;;5134866;27;20476;-50
2022/03/24 08:15:32;;;;;;;50.00;30.90;;;;;;;;;;5133714;27;20023;-48
2022/03/24 08:17:58;;;;;;;48.55;29.52;;;;;;;;;;5125836;27;20055;-48
2022/03/24 08:20:25;;;;;;;43.47;29.25;;;;;;;;;;5116771;27;20545;-48
2022/03/24 08:22:52;;;;;;;41.70;28.67;;;;;;;;;;5131104;27;20026;-49
2022/03/24 08:25:18;;;;;;;50.45;28.50;;;;;;;;;;5113835;27;20042;-50
2022/03/24 08:27:44;;;;;;;45.88;29.92;;;;;;;;;;5131364;27;20022;-48
2022/03/24 08:30:10;;;;;;;45.50;28.98;;;;;;;;;;5133795;27;20039;-49
2022/03/24 08:32:36;;;;;;;39.45;29.48;;;;;;;;;;5133674;27;20137;-51
2022/03/24 08:35:02;;;;;;;38.90;27.73;;;;;;;;;;5133764;27;20538;-49
2022/03/24 08:37:28;;;;;;;42.58;30.08;;;;;;;;;;5128404;27;20100;-53
2022/03/24 08:39:54;;;;;;;39.38;27.42;;;;;;;;;;5113842;27;20055;-52
2022/03/24 08:42:21;;;;;;;44.22;27.35;;;;;;;;;;5095527;28;20083;-50
2022/03/24 08:44:47;;;;;;;42.15;28.17;;;;;;;;;;5114002;28;20043;-54
2022/03/24 08:47:13;;;;;;;45.53;29.40;;;;;;;;;;5122886;27;20027;-50
2022/03/24 08:49:39;;;;;;;42.45;28.50;;;;;;;;;;5134527;27;20027;-51
2022/03/24 08:52:05;;;;;;;45.20;29.88;;;;;;;;;;5133027;27;20030;-49
2022/03/24 08:54:31;;;;;;;43.55;30.20;;;;;;;;;;5133767;27;20094;-50
2022/03/24 08:56:57;;;;;;;50.78;32.58;;;;;;;;;;5125479;27;20127;-50
2022/03/24 08:59:23;;;;;;;43.45;28.02;;;;;;;;;;5121162;27;20037;-50
2022/03/24 09:01:49;;;;;;;39.88;27.40;;;;;;;;;;5117400;27;20016;-51
2022/03/24 09:04:16;;;;;;;43.13;27.20;;;;;;;;;;5122407;27;20030;-49
2022/03/24 09:06:44;;;;;;;46.80;27.23;;;;;;;;;;5120415;27;20057;-50
2022/03/24 09:09:10;;;;;;;39.95;27.55;;;;;;;;;;5121788;27;20020;-49
2022/03/24 09:11:36;;;;;;;35.67;27.38;;;17.00;1.00;;;;;;5119771;27;20178;-49
2022/03/24 09:14:01;;;;;;;37.95;25.58;;;14.80;1.00;;;;;;5123972;27;20019;-52
2022/03/24 09:16:27;;;;;;;46.60;28.20;;;14.00;1.00;;;;;;5124118;27;20039;-49
2022/03/24 09:18:53;;;;;;;38.67;27.23;;;14.10;1.00;;;;;;5121806;27;20091;-48
2022/03/24 09:21:18;;;;;;;36.88;25.23;;;14.20;1.00;;;;;;5119551;27;20405;-55
2022/03/24 09:23:44;;;;;;;41.70;26.65;;;14.30;1.00;;;;;;5117315;27;20023;-52
2022/03/24 09:26:10;;;;;;;41.40;26.98;;;14.20;1.00;;;;;;5124639;27;20141;-54
2022/03/24 09:28:36;;;;;;;35.60;25.40;;;14.30;1.00;;;;;;5096539;27;20030;-53
2022/03/24 09:31:02;;;;;;;35.33;25.17;;;14.40;1.00;;;;;;5120799;27;20102;-51
2022/03/24 09:33:28;;;;;;;38.60;25.38;;;14.50;1.00;;;;;;5131141;27;20042;-50
2022/03/24 09:35:53;;;;;;;33.67;24.10;;;14.50;1.00;;;;;;5131947;27;20441;-52
2022/03/24 09:38:20;;;;;;;36.15;24.85;;;14.50;1.00;;;;;;5133258;27;20032;-51
2022/03/24 09:51:33;;;;;;;35.63;26.08;;;14.70;1.00;;;;;;5116096;27;20136;-51
2022/03/24 09:53:59;;;;;;;31.30;25.75;;;15.00;1.00;;;;;;5127934;28;20045;-49
2022/03/24 09:56:24;;;;;;;38.90;25.23;;;15.10;1.00;;;;;;5113533;28;20429;-50
2022/03/24 09:58:50;;;;;;;38.97;26.02;;;15.10;1.00;;;;;;5131669;28;20404;-53
2022/03/24 10:01:17;;;;;;;36.20;25.30;;;15.10;1.00;;;;;;5133189;28;20039;-51
2022/03/24 10:04:05;;;;;;;36.17;24.73;;;15.10;1.00;;;;;;5131863;28;20130;-53
2022/03/24 10:06:31;;;;;;;30.90;23.63;;;15.20;1.00;;;;;;5132412;28;20054;-49
2022/03/24 10:08:57;;;;;;;35.50;25.55;;;15.30;1.00;;;;;;5132037;28;20475;-52
2022/03/24 10:11:26;;;;;;;37.15;26.83;;;15.30;1.00;;;;;;5133055;28;20089;-50
2022/03/24 10:13:54;;;;;;;37.17;27.50;;;15.50;1.00;;;;;;5131863;28;20468;-51
2022/03/24 10:16:40;;;;;;;37.25;27.80;;;15.50;1.00;;;;;;5132995;28;20019;-49
2022/03/24 10:19:06;;;;;;;39.83;27.02;;;15.50;1.00;;;;;;5131648;28;20026;-49
2022/03/24 10:21:37;;;;;;;33.05;26.75;;;15.50;1.00;;;;;;5132111;28;20023;-53
2022/03/24 10:24:15;;;;;;;34.72;26.25;;;15.50;1.00;;;;;;5131474;28;20023;-50
2022/03/24 10:26:48;;;;;;;36.17;25.42;;;15.70;1.00;;;;;;5114750;28;20118;-51
2022/03/24 10:29:21;;;;;;;34.28;24.95;;;15.70;1.00;;;;;;5129526;28;20062;-52
2022/03/24 10:31:59;;;;;;;30.70;23.77;;;15.90;1.00;;;;;;5099794;28;20031;-52
2022/03/24 10:34:39;;;;;;;37.05;26.42;;;16.00;1.00;;;;;;5127627;28;20039;-48
2022/03/24 10:37:09;;;;;;;34.88;25.90;;;16.20;1.00;;;;;;5111971;28;20048;-50
2022/03/24 10:39:39;;;;;;;34.92;24.17;;;16.10;1.00;;;;;;5130079;28;20045;-52
2022/03/24 10:42:18;;;;;;;32.35;24.30;;;16.10;1.00;;;;;;5124979;28;20023;-52
2022/03/24 10:45:06;;;;;;;37.30;25.60;;;16.20;1.00;;;;;;5111793;28;20031;-54
2022/03/24 10:47:52;;;;;;;30.20;23.95;;;16.20;1.00;;;;;;5113132;28;20384;-51
2022/03/24 10:50:25;;;;;;;34.38;23.55;;;16.40;1.00;;;;;;5132887;28;20395;-54
2022/03/24 10:52:53;;;;;;;35.77;24.27;;;;;;;;;;5130002;28;20019;-50
2022/03/24 10:55:44;;;;;;;33.20;24.20;;;16.50;1.00;;;;;;5132702;28;20485;-48
2022/03/24 10:58:29;;;;;;;28.88;21.98;;;16.60;1.00;;;;;;5119252;27;20039;-48
2022/03/24 11:00:58;;;;;;;30.75;22.55;;;16.70;1.00;;;;;;5135983;27;20027;-48
2022/03/24 11:03:25;;;;;;;26.92;20.17;;;16.90;1.00;;;;;;5135122;27;20424;-53
2022/03/24 11:05:51;;;;;;;31.25;22.70;;;16.80;1.00;;;;;;5136490;27;20035;-48
2022/03/24 11:08:17;;;;;;;28.92;21.73;;;;;;;;;;5128247;27;20038;-51
2022/03/24 11:10:49;;;;;;;29.13;22.08;;;16.80;1.00;;;;;;5100680;27;20035;-48
2022/03/24 11:13:48;;;;;;;27.13;22.08;;;17.10;1.00;;;;;;5135223;27;20099;-49
2022/03/24 11:16:17;;;;;;;26.88;20.13;;;17.40;1.00;;;;;;5121054;27;20136;-53
2022/03/24 11:18:44;;;;;;;24.60;18.15;;;17.10;1.00;;;;;;5133601;27;20098;-54
2022/03/24 11:21:36;;;;;;;27.33;18.98;;;17.50;1.00;;;;;;5116287;27;20023;-51
2022/03/24 11:24:02;;;;;;;27.75;17.77;;;17.50;1.00;;;;;;5097845;27;20032;-50
2022/03/24 11:26:28;;;;;;;31.00;20.85;;;17.40;1.00;;;;;;5135919;27;20035;-51
2022/03/24 11:28:55;;;;;;;30.48;21.02;;;17.60;1.00;;;;;;5134156;27;20019;-54
2022/03/24 11:31:23;;;;;;;26.25;19.88;;;17.40;1.00;;;;;;5102572;28;20477;-49
2022/03/24 11:33:51;;;;;;;27.23;20.38;;;17.70;1.00;;;;;;5124866;27;20034;-50
2022/03/24 11:36:21;;;;;;;40.42;21.73;;;17.80;1.00;;;;;;5117078;27;20138;-51
2022/03/24 11:38:51;;;;;;;27.88;21.45;;;17.80;1.00;;;;;;5111077;27;20038;-50
2022/03/24 11:41:32;;;;;;;29.25;21.98;;;18.00;1.00;;;;;;5134686;27;20162;-49
2022/03/24 11:44:28;;;;;;;27.38;20.85;;;18.30;1.00;;;;;;5133941;27;20059;-51
2022/03/24 11:47:00;;;;;;;27.77;21.85;;;18.10;1.00;;;;;;5087522;27;20157;-53
2022/03/24 11:49:30;;;;;;;30.17;22.08;;;18.50;1.00;;;;;;5134297;27;20019;-52
2022/03/24 11:51:59;;;;;;;28.35;21.95;;;18.30;1.00;;;;;;5117026;27;20059;-53
2022/03/24 11:54:27;;;;;;;31.33;21.98;;;18.40;1.00;;;;;;5134472;27;20061;-53
2022/03/24 11:57:12;;;;;;;25.15;20.63;;;;;;;;;;5115678;27;20431;-52
2022/03/24 11:59:38;;;;;;;26.90;21.17;;;18.50;1.00;;;;;;5134084;27;20518;-50
2022/03/24 12:02:18;;;;;;;28.90;21.75;;;19.00;1.00;;;;;;5127653;27;20019;-55
2022/03/24 12:04:45;;;;;;;26.42;21.02;;;18.70;1.00;;;;;;5133133;27;20043;-51
2022/03/24 12:07:17;;;;;;;25.75;21.23;;;18.80;1.00;;;;;;5109300;28;20024;-49
2022/03/24 12:10:08;;;;;;;25.20;19.58;;;19.20;1.00;;;;;;5112638;28;20494;-50
2022/03/24 12:12:35;;;;;;;30.52;21.67;;;19.10;1.00;;;;;;5095296;28;20027;-50
2022/03/24 12:15:11;;;;;;;27.23;21.58;;;19.30;1.00;;;;;;5132560;27;20043;-51
2022/03/24 12:17:37;;;;;;;27.98;20.73;;;19.40;1.00;;;;;;5134317;27;20023;-50
2022/03/24 12:20:23;;;;;;;26.90;21.67;;;19.50;1.00;;;;;;5133745;27;20033;-50
2022/03/24 12:22:49;;;;;;;26.23;20.00;;;19.60;1.00;;;;;;5134308;27;20039;-53
2022/03/24 12:25:15;;;;;;;25.35;20.27;;;19.80;1.00;;;;;;5133991;27;20059;-49
2022/03/24 12:28:20;;;;;;;22.63;19.63;;;20.10;1.00;;;;;;5134534;27;20054;-51
2022/03/24 12:30:59;;;;;;;20.15;17.80;;;20.10;1.00;;;;;;5111635;27;20072;-53
2022/03/24 12:33:35;;;;;;;21.45;17.08;;;20.20;1.00;;;;;;5131883;27;20129;-47
2022/03/24 12:36:04;;;;;;;21.33;16.27;;;20.40;1.00;;;;;;5118481;27;20039;-49
2022/03/24 12:38:44;;;;;;;18.55;15.32;;;20.60;1.00;;;;;;5119174;27;20027;-47
2022/03/24 12:41:10;;;;;;;17.20;13.02;;;20.70;1.00;;;;;;5134752;27;20023;-49
2022/03/24 12:43:43;;;;;;;15.18;13.68;;;21.10;1.00;;;;;;5131797;27;20124;-48
2022/03/24 12:46:24;;;;;;;19.33;14.82;;;21.70;1.00;;;;;;5132586;27;20373;-49
2022/03/24 12:48:50;;;;;;;22.55;16.25;;;25.20;1.00;;;;;;5105578;28;20020;-48
2022/03/24 12:51:21;;;;;;;18.58;15.93;;;;;;;;;;5112907;28;20469;-49
2022/03/24 12:54:07;;;;;;;20.75;18.33;;;;;;;;;;5118965;27;20164;-52
2022/03/24 12:56:34;;;;;;;21.48;17.80;;;;;;;;;;5117247;27;20036;-51
2022/03/24 12:59:03;;;;;;;20.95;17.38;;;;;;;;;;5132735;27;20039;-50
2022/03/24 13:01:30;;;;;;;19.20;17.08;;;;;;;;;;5130908;27;20050;-50
2022/03/24 13:04:00;;;;;;;18.52;16.63;;;;;;;;;;5115096;27;20031;-50
2022/03/24 13:06:27;;;;;;;18.58;16.77;;;;;;;;;;5134196;27;20031;-52
2022/03/24 13:09:12;;;;;;;17.35;15.70;;;;;;;;;;5127995;27;20072;-49
2022/03/24 13:11:55;;;;;;;18.83;17.02;;;;;;;;;;5113472;28;20456;-54
2022/03/24 13:14:22;;;;;;;19.38;17.58;;;;;;;;;;5121198;27;20023;-52
2022/03/24 13:16:59;;;;;;;20.48;17.67;;;;;;;;;;5115278;27;20030;-49
2022/03/24 13:19:25;;;;;;;20.70;18.73;;;;;;;;;;5124671;27;20475;-51
2022/03/24 13:21:51;;;;;;;20.15;18.00;;;;;;;;;;5112714;28;20483;-53
2022/03/24 13:24:21;;;;;;;17.90;16.13;;;;;;;;;;5120173;27;20019;-53
2022/03/24 13:27:17;;;;;;;18.20;16.40;;;;;;;;;;5115281;27;20429;-53
2022/03/24 13:29:44;;;;;;;20.52;18.60;;;;;;;;;;5107056;27;20050;-47
2022/03/24 13:32:33;;;;;;;19.50;17.63;;;;;;;;;;5133580;27;20476;-53
2022/03/24 13:35:00;;;;;;;19.85;18.02;;;;;;;;;;5124590;27;20054;-54
2022/03/24 13:37:31;;;;;;;18.27;16.65;;;;;;;;;;5133369;27;20188;-52
2022/03/24 13:39:57;;;;;;;19.33;17.27;;;;;;;;;;5101518;28;20038;-53
2022/03/24 13:42:24;;;;;;;18.92;17.00;;;;;;;;;;5129640;27;20030;-53
2022/03/24 13:44:51;;;;;;;18.50;16.80;;;;;;;;;;5132256;27;20472;-50
2022/03/24 13:47:20;;;;;;;16.45;14.85;;;;;;;;;;5133683;27;20075;-51
2022/03/24 13:49:46;;;;;;;16.33;14.50;;;;;;;;;;5132400;27;20030;-49
2022/03/24 13:52:29;;;;;;;17.40;15.68;;;;;;;;;;5132939;27;20038;-54
2022/03/24 13:55:02;;;;;;;17.50;15.63;;;;;;;;;;5128238;27;20023;-55
2022/03/24 13:57:28;;;;;;;18.50;14.52;;;;;;;;;;5113263;28;20107;-51
2022/03/24 13:59:54;;;;;;;15.50;13.90;;;;;;;;;;5123541;28;20050;-53
2022/03/24 14:02:27;;;;;;;14.30;12.90;;;;;;;;;;5132940;28;20452;-51
2022/03/24 14:05:13;;;;;;;16.27;14.67;;;;;;;;;;5131969;28;20167;-53
2022/03/24 14:07:58;;;;;;;16.60;13.77;;;;;;;;;;5132862;28;20030;-53
2022/03/24 14:10:42;;;;;;;19.48;13.15;;;;;;;;;;5126387;28;20027;-54
2022/03/24 14:13:13;;;;;;;12.80;11.43;;;;;;;;;;5132987;28;20024;-52
2022/03/24 14:15:39;;;;;;;12.20;10.80;;;;;;;;;;5131601;28;20038;-50
2022/03/24 14:18:14;;;;;;;12.88;10.35;;;;;;;;;;5132624;28;20464;-51